SondeTracker

Meteorological Radiosondes Database

Operations

Sounding was ended - last measurement: 2022-12-07 12:59:48z

MAP
About Radiosonde

Number: U3140560

Launch Site: Galeão (BR)

Type: RS41

AUX: NO

Frequency: 405.301 MHz

Max Speed: 80 km/h at 14361 m

Average Speed: 43.15 km/h

Max Altitude: 21995 m

Average Ascent Speed: 7.19 m/s

Average Descent Speed: 11.41 m/s

Status: UNKNOWN

Status Changes
Launch Site Type AUX Frequency Status Finder Landing Point Description Changes made by
APRS Statistics

Received Frames: 88

First Frame [UTC]: 2022-12-07 11:39:33z

Last Frame [UTC]: 2022-12-07 12:59:48z

Receivers: PU1XMG-14, PY1TCM-11

Flight Time: 01:20:15 h

Distance From First Measurement: 32.30 km

Nearest City: Petrópolis (BR) [9.95 km]

Nearest Hunter: PU1JDI-11 [41.97 km]

Ground Altitude: 686 m

Distance from QTH: 0.00 km

APRS Data
Receiver Number Date/Time [UTC] φ λ Course [°] Speed [km/h] Altitude [m] Description
PU1XMG-14U31405602022-12-07 12:59:48-22.5545-43.093382879Clb=-8.7m/s t=21.0C h=82.4% p=914.8hPa 405.301 MHz Type=RS41-SGP ser=U3140560 Rastreio por PU1XMG https://sondehub.org/U3140560 & https://radiosondy.info/sond
PU1XMG-14U31405602022-12-07 12:59:17-22.554-43.0933144111118Clb=-6.4m/s t=20.0C h=78.1% p=889.2hPa 405.301 MHz Type=RS41-SGP ser=U3140560 Rastreio por PU1XMG https://sondehub.org/U3140560 & https://radiosondy.info/sond
PU1XMG-14U31405602022-12-07 12:58:46-22.5531-43.0941133311304Clb=-8.4m/s t=18.2C h=85.2% p=870.2hPa 405.301 MHz Type=RS41-SGP ser=U3140560 Rastreio por PU1XMG https://sondehub.org/U3140560 & https://radiosondy.info/sond
PU1XMG-14U31405602022-12-07 12:58:14-22.552-43.096488301538Clb=-9.0m/s t=17.2C h=86.3% p=846.8hPa 405.301 MHz Type=RS41-SGP ser=U3140560 Rastreio por PU1XMG https://sondehub.org/U3140560 & https://radiosondy.info/sond
PU1XMG-14U31405602022-12-07 12:57:43-22.5521-43.09983301809Clb=-9.6m/s t=14.6C h=98.4% p=820.5hPa 405.301 MHz Type=RS41-SGP ser=U3140560 Rastreio por PU1XMG https://sondehub.org/U3140560 & https://radiosondy.info/sond
PU1XMG-14U31405602022-12-07 12:57:12-22.5523-43.101277242078Clb=-8.6m/s t=13.4C h=98.8% p=794.3hPa 405.301 MHz Type=RS41-SGP ser=U3140560 Rastreio por PU1XMG https://sondehub.org/U3140560 & https://radiosondy.info/sond
PU1XMG-14U31405602022-12-07 12:56:41-22.5528-43.103277222342Clb=-9.4m/s t=12.0C h=98.8% p=769.9hPa 405.301 MHz Type=RS41-SGP ser=U3140560 Rastreio por PU1XMG https://sondehub.org/U3140560 & https://radiosondy.info/sond
PU1XMG-14U31405602022-12-07 12:56:10-22.553-43.105498262615Clb=-9.5m/s t=10.7C h=98.7% p=745.6hPa 405.301 MHz Type=RS41-SGP ser=U3140560 Rastreio por PU1XMG https://sondehub.org/U3140560 & https://radiosondy.info/sond
PU1XMG-14U31405602022-12-07 12:55:39-22.5526-43.1073107202890Clb=-10.7m/s t=9.5C h=88.1% p=721.4hPa 405.301 MHz Type=RS41-SGP ser=U3140560 Rastreio por PU1XMG https://sondehub.org/U3140560 & https://radiosondy.info/sond
PU1XMG-14U31405602022-12-07 12:55:08-22.5524-43.1091102193196Clb=-9.5m/s t=7.4C h=95.9% p=695.9hPa 405.301 MHz Type=RS41-SGP ser=U3140560 Rastreio por PU1XMG https://sondehub.org/U3140560 & https://radiosondy.info/sonde
PU1XMG-14U31405602022-12-07 12:54:06-22.5527-43.111860113766Clb=-9.4m/s t=5.4C h=77.0% p=649.3hPa 405.301 MHz Type=RS41-SGP ser=U3140560 Rastreio por PU1XMG https://sondehub.org/U3140560 & https://radiosondy.info/sonde
PU1XMG-14U31405602022-12-07 12:53:04-22.5545-43.114360204421Clb=-11.2m/s t=1.0C h=90.5% p=599.2hPa 405.301 MHz Type=RS41-SGP ser=U3140560 Rastreio por PU1XMG https://sondehub.org/U3140560 & https://radiosondy.info/sond
PU1XMG-14U31405602022-12-07 12:52:02-22.5577-43.119759465057Clb=-10.1m/s t=-2.8C h=92.0% p=553.2hPa 405.301 MHz Type=RS41-SGP ser=U3140560 Rastreio por PU1XMG https://sondehub.org/U3140560 & https://radiosondy.info/son
PU1XMG-14U31405602022-12-07 12:51:30-22.5593-43.123458525341Clb=-9.0m/s t=-4.3C h=91.8% p=534.0hPa 405.301 MHz Type=RS41-SGP ser=U3140560 Rastreio por PU1XMG https://sondehub.org/U3140560 & https://radiosondy.info/sond
PU1XMG-14U31405602022-12-07 12:51:00-22.5612-43.127265505677Clb=-10.0m/s t=-6.1C h=95.8% p=512.0hPa 405.301 MHz Type=RS41-SGP ser=U3140560 Rastreio por PU1XMG https://sondehub.org/U3140560 & https://radiosondy.info/son
PU1XMG-14U31405602022-12-07 12:50:28-22.5628-43.131468566017Clb=-9.1m/s t=-8.2C h=95.2% p=490.2hPa 405.301 MHz Type=RS41-SGP ser=U3140560 Rastreio por PU1XMG https://sondehub.org/U3140560 & https://radiosondy.info/sond
PU1XMG-14U31405602022-12-07 12:49:26-22.566-43.140270656665Clb=-9.8m/s t=-12.3C h=73.2% p=450.3hPa 405.301 MHz Type=RS41-SGP ser=U3140560 Rastreio por PU1XMG https://sondehub.org/U3140560 & https://radiosondy.info/son
PU1XMG-14U31405602022-12-07 12:48:24-22.5681-43.148183357304Clb=-10.6m/s t=-16.4C h=89.1% p=414.5hPa 405.301 MHz Type=RS41-SGP ser=U3140560 Rastreio por PU1XMG https://sondehub.org/U3140560 & https://radiosondy.info/so
PU1XMG-14U31405602022-12-07 12:47:22-22.5682-43.154896357847Clb=-7.0m/s t=-19.9C h=87.9% p=385.5hPa 405.301 MHz Type=RS41-SGP ser=U3140560 Rastreio por PU1XMG https://sondehub.org/U3140560 & https://radiosondy.info/son
PU1XMG-14U31405602022-12-07 12:46:20-22.5675-43.161291448462Clb=-10.3m/s t=-23.4C h=56.6% p=355.0hPa 405.301 MHz Type=RS41-SGP ser=U3140560 Rastreio por PU1XMG https://sondehub.org/U3140560 & https://radiosondy.info/so
PU1XMG-14U31405602022-12-07 12:45:18-22.5676-43.169176509093Clb=-11.4m/s t=-28.8C h=67.3% p=325.1hPa 405.301 MHz Type=RS41-SGP ser=U3140560 Rastreio por PU1XMG https://sondehub.org/U3140560 & https://radiosondy.info/so
PU1XMG-14U31405602022-12-07 12:44:16-22.5714-43.178359659751Clb=-14.2m/s t=-32.9C h=1.9% p=296.7hPa 405.301 MHz Type=RS41-SGP ser=U3140560 Rastreio por PU1XMG https://sondehub.org/U3140560 & https://radiosondy.info/son
PU1XMG-14U31405602022-12-07 12:43:14-22.5767-43.1858464810321Clb=-8.7m/s t=-36.6C h=2.0% p=273.2hPa 405.301 MHz Type=RS41-SGP ser=U3140560 Rastreio por PU1XMG https://sondehub.org/U3140560 & https://radiosondy.info/sond
PU1XMG-14U31405602022-12-07 12:42:42-22.5793-43.1891475610586Clb=-6.8m/s t=-38.5C h=2.5% p=262.8hPa 405.301 MHz Type=RS41-SGP ser=U3140560 Rastreio por PU1XMG https://sondehub.org/U3140560 & https://radiosondy.info/sond
PU1XMG-14U31405602022-12-07 12:42:12-22.5825-43.1923385710865Clb=-10.8m/s t=-40.8C h=3.1% p=252.7hPa 405.301 MHz Type=RS41-SGP ser=U3140560 Rastreio por PU1XMG https://sondehub.org/U3140560 & https://radiosondy.info/son
PU1XMG-14U31405602022-12-07 12:41:40-22.5858-43.1954465011223Clb=-12.9m/s t=-43.7C h=3.9% p=239.6hPa 405.301 MHz Type=RS41-SGP ser=U3140560 Rastreio por PU1XMG https://sondehub.org/U3140560 & https://radiosondy.info/son
PU1XMG-14U31405602022-12-07 12:40:38-22.5922-43.2025416112011Clb=-14.2m/s t=-49.1C h=4.2% p=212.7hPa 405.301 MHz Type=RS41-SGP ser=U3140560 Rastreio por PU1XMG https://sondehub.org/U3140560 & https://radiosondy.info/son
PU1XMG-14U31405602022-12-07 12:39:36-22.6015-43.2072137012950Clb=-14.8m/s t=-55.6C h=5.6% p=184.2hPa 405.301 MHz Type=RS41-SGP ser=U3140560 Rastreio por PU1XMG https://sondehub.org/U3140560 & https://radiosondy.info/son
PU1XMG-14U31405602022-12-07 12:38:34-22.6137-43.2094147613785Clb=-12.2m/s t=-60.8C h=6.7% p=161.3hPa 405.301 MHz Type=RS41-SGP ser=U3140560 Rastreio por PU1XMG https://sondehub.org/U3140560 & https://radiosondy.info/son
PU1XMG-14U31405602022-12-07 12:37:32-22.6252-43.21083527414553Clb=-13.5m/s t=-65.8C h=7.5% p=142.3hPa 405.301 MHz Type=RS41-SGP ser=U3140560 Rastreio por PU1XMG https://sondehub.org/U3140560 & https://radiosondy.info/son
PU1XMG-14U31405602022-12-07 12:36:30-22.6361-43.20753326315368Clb=-13.1m/s t=-69.6C h=7.9% p=124.4hPa 405.301 MHz Type=RS41-SGP ser=U3140560 Rastreio por PU1XMG https://sondehub.org/U3140560 & https://radiosondy.info/son
PU1XMG-14U31405602022-12-07 12:35:28-22.6434-43.19952966316185Clb=-13.9m/s t=-72.6C h=7.6% p=108.4hPa 405.301 MHz Type=RS41-SGP ser=U3140560 Rastreio por PU1XMG https://sondehub.org/U3140560 & https://radiosondy.info/son
PU1XMG-14U31405602022-12-07 12:34:26-22.6479-43.18912877617018Clb=-14.1m/s t=-75.1C h=6.4% p=94.1hPa 405.301 MHz Type=RS41-SGP ser=U3140560 Rastreio por PU1XMG https://sondehub.org/U3140560 & https://radiosondy.info/sond
PU1XMG-14U31405602022-12-07 12:33:24-22.6507-43.17712766517898Clb=-14.5m/s t=-74.4C h=5.5% p=80.8hPa 405.301 MHz Type=RS41-SGP ser=U3140560 Rastreio por PU1XMG https://sondehub.org/U3140560 & https://radiosondy.info/sond
PU1XMG-14U31405602022-12-07 12:30:48-22.6519-43.16362652820566Clb=-22.6m/s t=-69.6C h=2.1% p=51.7hPa 405.301 MHz Type=RS41-SGP ser=U3140560 Rastreio por PU1XMG https://sondehub.org/U3140560 & https://radiosondy.info/sond
PU1XMG-14U31405602022-12-07 12:29:46-22.6512-43.15882772421509Clb=-13.8m/s t=-65.5C h=1.6% p=44.2hPa 405.301 MHz Type=RS41-SGP ser=U3140560 Rastreio por PU1XMG https://sondehub.org/U3140560 & https://radiosondy.info/sond
PY1TCM-11U31405602022-12-07 12:28:58-22.6517-43.15442672021995Clb=6.0m/s t=-273.0C h=-1.0% p=-1.0hPa b=2.7V ser=U3140560 405.300 MHz Type=RS41 Radiosonde http://sondehub.org/U3140560 http://raadiosondy.info/sonde.php?sonde
PU1XMG-14U31405602022-12-07 12:28:44-22.6517-43.15432652221980Clb=8.4m/s t=-64.6C h=1.7% p=40.9hPa 405.301 MHz Type=RS41-SGP ser=U3140560 Rastreio por PU1XMG https://sondehub.org/U3140560 & https://radiosondy.info/sonde.
PU1XMG-14U31405602022-12-07 12:27:42-22.6518-43.14982812821514Clb=7.2m/s t=-65.9C h=2.2% p=44.1hPa 405.301 MHz Type=RS41-SGP ser=U3140560 Rastreio por PU1XMG https://sondehub.org/U3140560 & https://radiosondy.info/sonde.
PU1XMG-14U31405602022-12-07 12:26:40-22.6511-43.14512593121041Clb=4.2m/s t=-68.0C h=2.8% p=47.7hPa 405.301 MHz Type=RS41-SGP ser=U3140560 Rastreio por PU1XMG https://sondehub.org/U3140560 & https://radiosondy.info/sonde.
PU1XMG-14U31405602022-12-07 12:24:04-22.6487-43.13572742619876Clb=4.4m/s t=-69.7C h=4.5% p=57.9hPa 405.301 MHz Type=RS41-SGP ser=U3140560 Rastreio por PU1XMG https://sondehub.org/U3140560 & https://radiosondy.info/sonde.
PU1XMG-14U31405602022-12-07 12:23:02-22.6503-43.13042934419407Clb=5.2m/s t=-70.1C h=5.5% p=62.6hPa 405.301 MHz Type=RS41-SGP ser=U3140560 Rastreio por PU1XMG https://sondehub.org/U3140560 & https://radiosondy.info/sonde.
PU1XMG-14U31405602022-12-07 12:22:00-22.652-43.12543052618922Clb=10.0m/s t=-70.4C h=7.2% p=68.0hPa 405.301 MHz Type=RS41-SGP ser=U3140560 Rastreio por PU1XMG https://sondehub.org/U3140560 & https://radiosondy.info/sonde
PU1XMG-14U31405602022-12-07 12:20:58-22.6534-43.11962903518448Clb=6.9m/s t=-72.1C h=8.9% p=73.5hPa 405.301 MHz Type=RS41-SGP ser=U3140560 Rastreio por PU1XMG https://sondehub.org/U3140560 & https://radiosondy.info/sonde.
PU1XMG-14U31405602022-12-07 12:19:56-22.6536-43.1122786918009Clb=4.8m/s t=-74.6C h=10.1% p=79.2hPa 405.301 MHz Type=RS41-SGP ser=U3140560 Rastreio por PU1XMG https://sondehub.org/U3140560 & https://radiosondy.info/sonde
PU1XMG-14U31405602022-12-07 12:18:54-22.6561-43.10082857617623Clb=13.4m/s t=-76.3C h=9.9% p=84.7hPa 405.301 MHz Type=RS41-SGP ser=U3140560 Rastreio por PU1XMG https://sondehub.org/U3140560 & https://radiosondy.info/sonde
PU1XMG-14U31405602022-12-07 12:16:18-22.6653-43.07442995716409Clb=9.8m/s t=-73.1C h=7.1% p=104.4hPa 405.301 MHz Type=RS41-SGP ser=U3140560 Rastreio por PU1XMG https://sondehub.org/U3140560 & https://radiosondy.info/sonde
PU1XMG-14U31405602022-12-07 12:15:16-22.6707-43.06593136115867Clb=3.3m/s t=-70.0C h=6.3% p=114.7hPa 405.301 MHz Type=RS41-SGP ser=U3140560 Rastreio por PU1XMG https://sondehub.org/U3140560 & https://radiosondy.info/sonde
PU1XMG-14U31405602022-12-07 12:14:14-22.6784-43.05933315615338Clb=8.1m/s t=-67.9C h=6.3% p=124.9hPa 405.301 MHz Type=RS41-SGP ser=U3140560 Rastreio por PU1XMG https://sondehub.org/U3140560 & https://radiosondy.info/sonde
PU1XMG-14U31405602022-12-07 12:13:12-22.6881-43.05653547814839Clb=4.4m/s t=-66.3C h=6.0% p=135.7hPa 405.301 MHz Type=RS41-SGP ser=U3140560 Rastreio por PU1XMG https://sondehub.org/U3140560 & https://radiosondy.info/sonde
PU1XMG-14U31405602022-12-07 12:12:10-22.7001-43.0553538014361Clb=11.0m/s t=-63.7C h=5.7% p=146.8hPa 405.301 MHz Type=RS41-SGP ser=U3140560 Rastreio por PU1XMG https://sondehub.org/U3140560 & https://radiosondy.info/sond
PU1XMG-14U31405602022-12-07 12:11:08-22.712-43.0562117013825Clb=9.7m/s t=-61.3C h=5.7% p=160.1hPa 405.301 MHz Type=RS41-SGP ser=U3140560 Rastreio por PU1XMG https://sondehub.org/U3140560 & https://radiosondy.info/sonde
PU1XMG-14U31405602022-12-07 12:10:06-22.7245-43.058347213327Clb=10.5m/s t=-57.8C h=5.1% p=173.4hPa 405.301 MHz Type=RS41-SGP ser=U3140560 Rastreio por PU1XMG https://sondehub.org/U3140560 & https://radiosondy.info/sond
PU1XMG-14U31405602022-12-07 12:08:32-22.7418-43.0621166312579Clb=5.9m/s t=-52.4C h=4.2% p=194.7hPa 405.301 MHz Type=RS41-SGP ser=U3140560 Rastreio por PU1XMG https://sondehub.org/U3140560 & https://radiosondy.info/sonde
PU1XMG-14U31405602022-12-07 12:07:30-22.751-43.0665266512116Clb=8.6m/s t=-49.3C h=3.7% p=209.0hPa 405.301 MHz Type=RS41-SGP ser=U3140560 Rastreio por PU1XMG https://sondehub.org/U3140560 & https://radiosondy.info/sonde
PU1XMG-14U31405602022-12-07 12:06:28-22.7581-43.0725546111627Clb=7.8m/s t=-46.9C h=4.4% p=225.1hPa 405.301 MHz Type=RS41-SGP ser=U3140560 Rastreio por PU1XMG https://sondehub.org/U3140560 & https://radiosondy.info/sonde
PU1XMG-14U31405602022-12-07 12:05:26-22.7646-43.0794445411209Clb=7.7m/s t=-43.7C h=3.4% p=239.7hPa 405.301 MHz Type=RS41-SGP ser=U3140560 Rastreio por PU1XMG https://sondehub.org/U3140560 & https://radiosondy.info/sonde
PU1XMG-14U31405602022-12-07 12:04:24-22.7705-43.0858454610774Clb=7.7m/s t=-40.1C h=2.5% p=255.5hPa 405.301 MHz Type=RS41-SGP ser=U3140560 Rastreio por PU1XMG https://sondehub.org/U3140560 & https://radiosondy.info/sonde
PU1XMG-14U31405602022-12-07 12:03:22-22.776-43.0912395210404Clb=7.9m/s t=-37.5C h=2.2% p=269.7hPa 405.301 MHz Type=RS41-SGP ser=U3140560 Rastreio por PU1XMG https://sondehub.org/U3140560 & https://radiosondy.info/sonde
PU1XMG-14U31405602022-12-07 12:02:20-22.7808-43.0984374610016Clb=5.4m/s t=-34.9C h=2.2% p=285.1hPa 405.301 MHz Type=RS41-SGP ser=U3140560 Rastreio por PU1XMG https://sondehub.org/U3140560 & https://radiosondy.info/sonde
PU1XMG-14U31405602022-12-07 12:01:18-22.7857-43.106175599616Clb=10.2m/s t=-32.0C h=2.1% p=301.8hPa 405.301 MHz Type=RS41-SGP ser=U3140560 Rastreio por PU1XMG https://sondehub.org/U3140560 & https://radiosondy.info/sond
PU1XMG-14U31405602022-12-07 11:59:44-22.7903-43.120866509007Clb=6.8m/s t=-28.3C h=31.4% p=328.8hPa 405.301 MHz Type=RS41-SGP ser=U3140560 Rastreio por PU1XMG https://sondehub.org/U3140560 & https://radiosondy.info/sond
PU1XMG-14U31405602022-12-07 11:58:42-22.7907-43.13187708563Clb=7.1m/s t=-25.3C h=88.1% p=349.5hPa 405.301 MHz Type=RS41-SGP ser=U3140560 Rastreio por PU1XMG https://sondehub.org/U3140560 & https://radiosondy.info/sond
PU1XMG-14U31405602022-12-07 11:57:40-22.7905-43.140877488132Clb=7.2m/s t=-21.8C h=47.6% p=370.6hPa 405.301 MHz Type=RS41-SGP ser=U3140560 Rastreio por PU1XMG https://sondehub.org/U3140560 & https://radiosondy.info/sond
PU1XMG-14U31405602022-12-07 11:56:38-22.7907-43.149991617697Clb=5.9m/s t=-18.9C h=76.8% p=393.0hPa 405.301 MHz Type=RS41-SGP ser=U3140560 Rastreio por PU1XMG https://sondehub.org/U3140560 & https://radiosondy.info/sond
PU1XMG-14U31405602022-12-07 11:55:36-22.7909-43.159480597325Clb=5.9m/s t=-16.6C h=82.8% p=413.1hPa 405.301 MHz Type=RS41-SGP ser=U3140560 Rastreio por PU1XMG https://sondehub.org/U3140560 & https://radiosondy.info/sond
PU1XMG-14U31405602022-12-07 11:54:34-22.7926-43.16868616879Clb=7.2m/s t=-13.2C h=76.4% p=438.0hPa 405.301 MHz Type=RS41-SGP ser=U3140560 Rastreio por PU1XMG https://sondehub.org/U3140560 & https://radiosondy.info/sond
PU1XMG-14U31405602022-12-07 11:53:32-22.7957-43.177172466447Clb=6.8m/s t=-11.0C h=95.0% p=463.4hPa 405.301 MHz Type=RS41-SGP ser=U3140560 Rastreio por PU1XMG https://sondehub.org/U3140560 & https://radiosondy.info/sond
PU1XMG-14U31405602022-12-07 11:52:30-22.7997-43.185861526019Clb=7.5m/s t=-8.1C h=80.5% p=489.6hPa 405.301 MHz Type=RS41-SGP ser=U3140560 Rastreio por PU1XMG https://sondehub.org/U3140560 & https://radiosondy.info/sonde
PU1XMG-14U31405602022-12-07 11:51:58-22.8018-43.189566545806Clb=9.0m/s t=-6.8C h=78.0% p=503.3hPa 405.301 MHz Type=RS41-SGP ser=U3140560 Rastreio por PU1XMG https://sondehub.org/U3140560 & https://radiosondy.info/sonde
PU1XMG-14U31405602022-12-07 11:50:56-22.8059-43.197155335355Clb=6.2m/s t=-4.3C h=84.9% p=532.8hPa 405.301 MHz Type=RS41-SGP ser=U3140560 Rastreio por PU1XMG https://sondehub.org/U3140560 & https://radiosondy.info/sonde
PU1XMG-14U31405602022-12-07 11:49:54-22.8083-43.203888304891Clb=5.4m/s t=-2.1C h=98.5% p=564.9hPa 405.301 MHz Type=RS41-SGP ser=U3140560 Rastreio por PU1XMG https://sondehub.org/U3140560 & https://radiosondy.info/sonde
PU1XMG-14U31405602022-12-07 11:48:52-22.8096-43.208282224459Clb=8.7m/s t=0.5C h=92.2% p=596.0hPa 405.301 MHz Type=RS41-SGP ser=U3140560 Rastreio por PU1XMG https://sondehub.org/U3140560 & https://radiosondy.info/sonde.
PU1XMG-14U31405602022-12-07 11:47:50-22.8102-43.211973224019Clb=8.2m/s t=3.9C h=70.3% p=629.3hPa 405.301 MHz Type=RS41-SGP ser=U3140560 Rastreio por PU1XMG https://sondehub.org/U3140560 & https://radiosondy.info/sonde.
PU1XMG-14U31405602022-12-07 11:46:48-22.8116-43.215785193589Clb=9.1m/s t=6.7C h=66.8% p=663.2hPa 405.301 MHz Type=RS41-SGP ser=U3140560 Rastreio por PU1XMG https://sondehub.org/U3140560 & https://radiosondy.info/sonde.
PU1XMG-14U31405602022-12-07 11:45:46-22.8115-43.22107303140Clb=5.6m/s t=7.6C h=98.4% p=700.2hPa 405.301 MHz Type=RS41-SGP ser=U3140560 Rastreio por PU1XMG https://sondehub.org/U3140560 & https://radiosondy.info/sonde.
PU1XMG-14U31405602022-12-07 11:45:15-22.8112-43.222177372919Clb=6.0m/s t=9.0C h=96.5% p=718.7hPa 405.301 MHz Type=RS41-SGP ser=U3140560 Rastreio por PU1XMG https://sondehub.org/U3140560 & https://radiosondy.info/sonde.
PU1XMG-14U31405602022-12-07 11:44:44-22.811-43.224591302706Clb=7.4m/s t=10.1C h=96.9% p=738.2hPa 405.301 MHz Type=RS41-SGP ser=U3140560 Rastreio por PU1XMG https://sondehub.org/U3140560 & https://radiosondy.info/sonde
PU1XMG-14U31405602022-12-07 11:44:12-22.8107-43.227187262490Clb=6.4m/s t=11.3C h=98.2% p=756.5hPa 405.301 MHz Type=RS41-SGP ser=U3140560 Rastreio por PU1XMG https://sondehub.org/U3140560 & https://radiosondy.info/sonde
PU1XMG-14U31405602022-12-07 11:43:41-22.8106-43.2293100192271Clb=5.4m/s t=12.3C h=98.1% p=776.8hPa 405.301 MHz Type=RS41-SGP ser=U3140560 Rastreio por PU1XMG https://sondehub.org/U3140560 & https://radiosondy.info/sonde
PU1XMG-14U31405602022-12-07 11:43:10-22.8107-43.23193242074Clb=7.0m/s t=13.4C h=99.5% p=795.1hPa 405.301 MHz Type=RS41-SGP ser=U3140560 Rastreio por PU1XMG https://sondehub.org/U3140560 & https://radiosondy.info/sonde
PU1XMG-14U31405602022-12-07 11:42:39-22.8108-43.23287271859Clb=6.5m/s t=14.4C h=97.0% p=815.9hPa 405.301 MHz Type=RS41-SGP ser=U3140560 Rastreio por PU1XMG https://sondehub.org/U3140560 & https://radiosondy.info/sonde
PU1XMG-14U31405602022-12-07 11:42:08-22.811-43.234692261651Clb=8.2m/s t=15.8C h=95.2% p=835.7hPa 405.301 MHz Type=RS41-SGP ser=U3140560 Rastreio por PU1XMG https://sondehub.org/U3140560 & https://radiosondy.info/sonde
PU1XMG-14U31405602022-12-07 11:41:37-22.8109-43.236698241450Clb=8.3m/s t=17.0C h=92.6% p=855.9hPa 405.301 MHz Type=RS41-SGP ser=U3140560 Rastreio por PU1XMG https://sondehub.org/U3140560 & https://radiosondy.info/sonde
PU1XMG-14U31405602022-12-07 11:41:06-22.8107-43.238298171257Clb=4.6m/s t=17.8C h=91.7% p=875.1hPa 405.301 MHz Type=RS41-SGP ser=U3140560 Rastreio por PU1XMG https://sondehub.org/U3140560 & https://radiosondy.info/sonde
PU1XMG-14U31405602022-12-07 11:40:35-22.8103-43.240289261057Clb=4.5m/s t=19.5C h=84.0% p=-1.0hPa 405.301 MHz Type=RS41-SGP ser=U3140560 Rastreio por PU1XMG https://sondehub.org/U3140560 & https://radiosondy.info/sonde.
PU1XMG-14U31405602022-12-07 11:40:04-22.8099-43.24259922856Clb=5.9m/s t=21.3C h=-1.0% p=-1.0hPa 405.301 MHz Type=RS41-SGP ser=U3140560 Rastreio por PU1XMG https://sondehub.org/U3140560 & https://radiosondy.info/sonde.
PU1XMG-14U31405602022-12-07 11:39:33-22.8093-43.244213230675Clb=5.1m/s t=22.7C h=-1.0% p=-1.0hPa 405.301 MHz Type=RS41 ser=U3140560 Rastreio por PU1XMG https://sondehub.org/U3140560 & https://radiosondy.info/sonde.php?